Time;durP1;ratioP1;P1;durP2;ratioP2;P2;SDS_P1;SDS_P2;PMS_P1;PMS_P2;Temp;Humidity;BMP_temperature;BMP_pressure;BME280_temperature;BME280_humidity;BME280_pressure;Samples;Min_cycle;Max_cycle;Signal;HPM_P1;HPM_P2
2023/12/03 00:00:48;;;;;;;18.42;10.38;;;;;;;;;;4813737;29;20527;-73
2023/12/03 00:03:14;;;;;;;22.13;10.50;;;;;;;;;;4813257;29;20061;-74
2023/12/03 00:05:40;;;;;;;20.38;9.80;;;;;;;;;;4814307;29;20046;-74
2023/12/03 00:08:07;;;;;;;20.38;11.02;;;;;;;;;;4814190;29;20079;-74
2023/12/03 00:10:33;;;;;;;17.73;9.77;;;;;;;;;;4813508;29;20046;-74
2023/12/03 00:13:05;;;;;;;19.67;10.10;;;;;;;;;;4813487;29;20065;-74
2023/12/03 00:15:31;;;;;;;19.63;9.88;;;;;;;;;;4813559;29;20043;-74
2023/12/03 00:17:57;;;;;;;18.10;8.95;;;;;;;;;;4813377;29;20046;-74
2023/12/03 00:20:23;;;;;;;16.23;9.07;;;;;;;;;;4814876;29;20125;-74
2023/12/03 00:22:49;;;;;;;17.30;9.85;;;;;;;;;;4818549;29;20056;-74
2023/12/03 00:33:50;;;;;;;17.67;8.85;;;;;;;;;;4906140;24;19929;-74
2023/12/03 00:36:16;;;;;;;14.73;9.38;;;;;;;;;;4811262;29;20061;-74
2023/12/03 00:38:42;;;;;;;15.05;8.13;;;;;;;;;;4798320;29;20057;-74
2023/12/03 00:45:04;;;;;;;14.80;8.75;;;;;;;;;;4807564;29;20087;-74
2023/12/03 00:50:07;;;;;;;17.40;9.00;;;;;;;;;;5661250;24;20057;-74
2023/12/03 00:52:33;;;;;;;16.27;9.25;;;;;;;;;;4852811;29;20515;-73
2023/12/03 00:54:59;;;;;;;13.85;8.48;;;;;;;;;;4852362;29;20041;-74
2023/12/03 00:57:25;;;;;;;15.98;8.90;;;;;;;;;;4852752;29;20041;-74
2023/12/03 00:59:51;;;;;;;17.00;9.45;;;;;;;;;;4840824;29;20054;-73
2023/12/03 01:02:17;;;;;;;17.33;8.65;;;;;;;;;;4844986;29;20591;-74
2023/12/03 01:04:43;;;;;;;57.72;11.30;;;;;;;;;;4848625;29;20049;-74
2023/12/03 01:07:09;;;;;;;42.22;10.77;;;;;;;;;;4859863;29;20142;-74
2023/12/03 01:12:58;;;;;;;19.55;10.00;;;;;;;;;;4842943;29;20120;-74
2023/12/03 01:15:24;;;;;;;22.00;10.80;;;;;;;;;;4856844;29;20054;-74
2023/12/03 01:17:50;;;;;;;42.38;13.43;;;;;;;;;;4855602;29;20060;-74
2023/12/03 01:20:17;;;;;;;35.88;12.23;;;;;;;;;;4854095;29;20054;-74
2023/12/03 01:22:43;;;;;;;22.08;10.00;;;;;;;;;;4846515;29;20501;-74
2023/12/03 01:25:09;;;;;;;17.38;10.52;;;;;;;;;;4860656;29;20048;-74
2023/12/03 01:27:35;;;;;;;15.07;8.73;;;;;;;;;;4859709;29;20077;-74
2023/12/03 01:30:01;;;;;;;24.23;11.02;;;;;;;;;;4850029;29;20227;-74
2023/12/03 01:32:27;;;;;;;25.00;11.65;;;;;;;;;;4862933;29;20568;-74
2023/12/03 01:34:53;;;;;;;19.80;10.35;;;;;;;;;;4864057;29;20046;-74
2023/12/03 01:37:19;;;;;;;15.18;8.77;;;;;;;;;;4860940;29;20042;-74
2023/12/03 01:39:46;;;;;;;203.35;16.98;;;;;;;;;;4840743;29;20619;-74
2023/12/03 01:42:11;;;;;;;26.85;11.95;;;;;;;;;;4843406;29;20061;-74
2023/12/03 01:44:37;;;;;;;20.70;9.43;;;;;;;;;;4856827;29;20758;-74
2023/12/03 01:47:04;;;;;;;14.18;8.50;;;;;;;;;;4844050;29;20094;-74
2023/12/03 01:53:05;;;;;;;14.75;7.28;;;;;;;;;;4838131;29;20171;-73
2023/12/03 01:55:32;;;;;;;13.88;8.00;;;;;;;;;;4846387;29;20049;-74
2023/12/03 01:57:58;;;;;;;11.82;7.25;;;;;;;;;;4830195;29;20073;-74
2023/12/03 02:00:24;;;;;;;13.23;8.35;;;;;;;;;;4863656;29;20053;-74
2023/12/03 02:03:05;;;;;;;25.83;8.50;;;;;;;;;;4840420;29;20065;-74
2023/12/03 02:05:31;;;;;;;20.02;9.43;;;;;;;;;;4845209;29;20069;-74
2023/12/03 02:07:58;;;;;;;25.00;10.82;;;;;;;;;;4839966;29;20072;-74
2023/12/03 02:10:24;;;;;;;57.67;12.73;;;;;;;;;;4848014;29;20056;-74
2023/12/03 02:12:50;;;;;;;87.75;12.55;;;;;;;;;;4859990;29;20050;-74
2023/12/03 02:15:16;;;;;;;64.28;13.88;;;;;;;;;;4862424;29;20056;-74
2023/12/03 02:21:39;;;;;;;22.27;10.10;;;;;;;;;;4845787;29;20556;-74
2023/12/03 02:24:14;;;;;;;36.10;10.35;;;;;;;;;;4838332;29;20139;-74
2023/12/03 02:26:58;;;;;;;;;;;;;;;;;;4856794;29;20056;-74
2023/12/03 02:46:24;;;;;;;18.98;9.50;;;;;;;;;;5398194;24;20064;-74
2023/12/03 02:48:50;;;;;;;23.55;12.23;;;;;;;;;;4826726;29;20485;-73
2023/12/03 02:57:32;;;;;;;24.15;11.18;;;;;;;;;;4899426;23;20133;-73
2023/12/03 02:59:58;;;;;;;27.95;12.13;;;;;;;;;;4827490;29;20058;-74
2023/12/03 03:02:24;;;;;;;20.98;10.93;;;;;;;;;;4823233;29;20061;-74
2023/12/03 03:04:51;;;;;;;20.55;9.05;;;;;;;;;;4828228;29;20382;-73
2023/12/03 03:07:17;;;;;;;14.02;7.93;;;;;;;;;;4825242;29;20053;-74
2023/12/03 03:09:42;;;;;;;15.23;8.70;;;;;;;;;;4830516;29;20405;-74
2023/12/03 03:12:08;;;;;;;13.88;8.45;;;;;;;;;;4825636;29;20042;-74
2023/12/03 03:14:34;;;;;;;15.73;8.70;;;;;;;;;;4830657;29;20057;-74
2023/12/03 03:17:00;;;;;;;16.42;8.77;;;;;;;;;;4831340;29;20046;-74
2023/12/03 03:19:26;;;;;;;17.63;9.70;;;;;;;;;;4827373;29;20097;-74
2023/12/03 03:21:52;;;;;;;16.42;10.32;;;;;;;;;;4830753;29;20106;-74
2023/12/03 03:24:18;;;;;;;17.83;9.70;;;;;;;;;;4826670;29;20750;-74
2023/12/03 03:26:44;;;;;;;18.10;9.18;;;;;;;;;;4828489;29;20064;-74
2023/12/03 03:29:10;;;;;;;16.08;8.90;;;;;;;;;;4827182;29;20054;-73
2023/12/03 03:31:36;;;;;;;18.13;9.38;;;;;;;;;;4822103;29;20041;-74
2023/12/03 03:34:03;;;;;;;15.38;9.30;;;;;;;;;;4828662;29;20056;-74
2023/12/03 03:39:45;;;;;;;15.27;10.00;;;;;;;;;;4829389;29;20767;-73
2023/12/03 03:42:11;;;;;;;20.85;10.10;;;;;;;;;;4826273;29;20058;-73
2023/12/03 03:44:37;;;;;;;18.98;10.00;;;;;;;;;;4827773;29;20053;-74
2023/12/03 03:49:48;;;;;;;19.70;10.73;;;;;;;;;;5166742;24;20543;-74
2023/12/03 03:52:14;;;;;;;24.17;11.90;;;;;;;;;;4832770;29;20058;-74
2023/12/03 03:54:41;;;;;;;33.63;15.05;;;;;;;;;;4835457;29;20042;-74
2023/12/03 03:57:07;;;;;;;32.17;14.48;;;;;;;;;;4834570;29;20606;-74
2023/12/03 03:59:33;;;;;;;44.72;17.35;;;;;;;;;;4816659;29;20125;-74
2023/12/03 04:01:59;;;;;;;44.10;17.13;;;;;;;;;;4831922;29;20076;-74
2023/12/03 04:04:25;;;;;;;36.78;17.38;;;;;;;;;;4835827;29;20050;-74
2023/12/03 04:06:51;;;;;;;45.78;18.15;;;;;;;;;;4834587;29;20122;-74
2023/12/03 04:09:17;;;;;;;43.63;18.52;;;;;;;;;;4835236;29;20045;-74
2023/12/03 04:11:44;;;;;;;81.22;20.35;;;;;;;;;;4834960;29;20492;-74
2023/12/03 04:14:16;;;;;;;56.92;20.00;;;;;;;;;;4834718;29;20069;-74
2023/12/03 04:16:43;;;;;;;110.72;21.27;;;;;;;;;;4834840;29;20052;-74
2023/12/03 04:19:09;;;;;;;92.50;21.08;;;;;;;;;;4833233;29;20106;-74
2023/12/03 04:21:36;;;;;;;82.47;22.63;;;;;;;;;;4834704;29;20064;-74
2023/12/03 04:24:02;;;;;;;101.50;21.70;;;;;;;;;;4833868;29;20644;-74
2023/12/03 04:26:28;;;;;;;106.53;24.83;;;;;;;;;;4835237;29;20479;-74
2023/12/03 04:28:54;;;;;;;94.25;22.83;;;;;;;;;;4834438;29;20054;-74
2023/12/03 04:31:22;;;;;;;61.05;21.05;;;;;;;;;;4829015;29;20175;-74
2023/12/03 04:33:51;;;;;;;73.00;23.05;;;;;;;;;;4834401;29;20805;-74
2023/12/03 04:36:18;;;;;;;76.68;22.27;;;;;;;;;;4834708;29;20049;-74
2023/12/03 04:38:44;;;;;;;82.57;22.10;;;;;;;;;;4834561;29;20054;-74
2023/12/03 04:41:10;;;;;;;86.10;24.40;;;;;;;;;;4830534;29;20081;-74
2023/12/03 04:43:36;;;;;;;92.85;24.20;;;;;;;;;;4834477;29;20053;-74
2023/12/03 04:46:06;;;;;;;135.73;26.20;;;;;;;;;;4833191;29;20042;-74
2023/12/03 04:48:32;;;;;;;145.93;23.67;;;;;;;;;;4835749;29;20098;-73
2023/12/03 04:50:58;;;;;;;157.30;26.02;;;;;;;;;;4836130;29;20110;-74
2023/12/03 04:53:24;;;;;;;146.00;25.33;;;;;;;;;;4834269;29;20049;-75
2023/12/03 04:55:50;;;;;;;174.45;27.52;;;;;;;;;;4834730;29;20520;-74
2023/12/03 04:58:16;;;;;;;164.10;26.02;;;;;;;;;;5119085;24;20024;-74
2023/12/03 05:00:42;;;;;;;153.40;26.55;;;;;;;;;;4852415;29;20119;-74
2023/12/03 05:03:08;;;;;;;141.40;24.33;;;;;;;;;;4852808;29;20054;-74
2023/12/03 05:05:34;;;;;;;174.77;27.02;;;;;;;;;;4852946;29;20817;-75
2023/12/03 05:08:00;;;;;;;154.60;25.55;;;;;;;;;;5019894;24;20021;-74
2023/12/03 05:13:43;;;;;;;135.63;23.55;;;;;;;;;;4835240;29;20144;-74
2023/12/03 05:16:09;;;;;;;144.50;24.60;;;;;;;;;;4835638;29;20054;-74
2023/12/03 05:18:35;;;;;;;158.98;26.10;;;;;;;;;;4833214;29;20085;-74
2023/12/03 05:21:02;;;;;;;125.05;23.13;;;;;;;;;;4830964;29;20145;-74
2023/12/03 05:23:28;;;;;;;120.53;22.40;;;;;;;;;;4828948;29;20053;-74
2023/12/03 05:25:54;;;;;;;135.38;24.75;;;;;;;;;;4828423;29;20061;-74
2023/12/03 05:28:21;;;;;;;120.43;21.77;;;;;;;;;;4829286;29;20054;-74
2023/12/03 05:30:47;;;;;;;130.15;24.92;;;;;;;;;;4827999;29;20108;-74
2023/12/03 05:33:13;;;;;;;99.82;22.45;;;;;;;;;;4829537;29;20588;-74
2023/12/03 05:45:26;;;;;;;113.72;23.58;;;;;;;;;;4832195;29;20056;-74
2023/12/03 05:47:52;;;;;;;105.23;22.23;;;;;;;;;;4828834;29;20058;-74
2023/12/03 05:50:18;;;;;;;104.28;22.77;;;;;;;;;;4833287;29;20289;-74
2023/12/03 05:52:44;;;;;;;99.78;21.88;;;;;;;;;;4833442;29;20053;-74
2023/12/03 05:55:41;;;;;;;90.40;23.13;;;;;;;;;;4831492;29;20065;-74
2023/12/03 05:58:07;;;;;;;97.15;21.67;;;;;;;;;;4833249;29;20137;-74
2023/12/03 06:00:33;;;;;;;82.82;22.05;;;;;;;;;;4833759;29;20575;-74
2023/12/03 06:02:59;;;;;;;117.40;23.00;;;;;;;;;;4830117;29;20062;-74
2023/12/03 06:05:25;;;;;;;89.07;20.40;;;;;;;;;;4833361;29;20109;-74
2023/12/03 06:07:51;;;;;;;95.93;22.85;;;;;;;;;;4833254;29;20061;-74
2023/12/03 06:10:17;;;;;;;104.78;23.83;;;;;;;;;;4833261;29;20102;-74
2023/12/03 06:12:43;;;;;;;107.18;22.15;;;;;;;;;;4833260;29;20045;-74
2023/12/03 06:27:19;;;;;;;85.03;19.77;;;;;;;;;;4834292;29;20499;-74
2023/12/03 06:35:43;;;;;;;102.53;20.00;;;;;;;;;;4905246;23;20058;-75
2023/12/03 06:40:45;;;;;;;79.60;18.55;;;;;;;;;;5314117;23;20057;-73
2023/12/03 06:43:11;;;;;;;89.90;19.00;;;;;;;;;;4849335;29;20460;-74
2023/12/03 06:45:37;;;;;;;85.85;18.33;;;;;;;;;;4851037;29;20057;-74
2023/12/03 06:48:04;;;;;;;77.43;17.73;;;;;;;;;;4845412;29;20961;-74
2023/12/03 06:50:30;;;;;;;75.85;17.80;;;;;;;;;;4845216;29;20137;-74
2023/12/03 06:52:56;;;;;;;84.30;18.27;;;;;;;;;;4829714;29;20493;-74
2023/12/03 07:03:49;;;;;;;73.63;20.10;;;;;;;;;;4794141;29;20422;-74
2023/12/03 07:06:15;;;;;;;82.88;18.55;;;;;;;;;;4813079;29;20051;-74
2023/12/03 07:08:41;;;;;;;84.43;18.40;;;;;;;;;;4793739;29;20505;-73
2023/12/03 07:11:41;;;;;;;93.32;19.25;;;;;;;;;;4790260;29;20780;-74
2023/12/03 07:14:07;;;;;;;88.60;20.52;;;;;;;;;;4791185;29;20323;-74
2023/12/03 07:22:25;;;;;;;74.03;20.05;;;;;;;;;;4840722;24;20584;-74
2023/12/03 07:24:51;;;;;;;80.07;21.02;;;;;;;;;;4809674;29;20107;-73
2023/12/03 07:27:18;;;;;;;76.40;20.42;;;;;;;;;;4812475;29;20077;-74
2023/12/03 07:29:44;;;;;;;72.25;19.38;;;;;;;;;;4828731;29;20417;-73
2023/12/03 07:32:10;;;;;;;83.00;22.35;;;;;;;;;;4828501;29;20050;-74
2023/12/03 07:34:36;;;;;;;78.93;20.77;;;;;;;;;;4829814;29;20065;-73
2023/12/03 07:42:59;;;;;;;76.57;20.60;;;;;;;;;;4852921;29;20057;-73
2023/12/03 07:45:25;;;;;;;76.18;21.88;;;;;;;;;;4853905;29;20053;-73
2023/12/03 07:47:51;;;;;;;86.40;23.00;;;;;;;;;;4847995;29;20117;-76
2023/12/03 07:50:17;;;;;;;71.72;20.48;;;;;;;;;;4833768;29;20519;-72
2023/12/03 07:52:43;;;;;;;83.63;22.15;;;;;;;;;;4833896;29;20057;-72
2023/12/03 07:55:10;;;;;;;86.93;23.58;;;;;;;;;;4850209;29;20058;-73
2023/12/03 07:57:36;;;;;;;86.00;21.88;;;;;;;;;;4825807;29;20607;-73
2023/12/03 08:00:02;;;;;;;98.95;26.73;;;;;;;;;;4829726;29;20857;-72
2023/12/03 08:02:28;;;;;;;93.82;25.15;;;;;;;;;;4830318;29;20213;-73
2023/12/03 08:05:28;;;;;;;95.60;26.52;;;;;;;;;;4831201;29;20046;-74
2023/12/03 08:07:54;;;;;;;102.25;27.52;;;;;;;;;;4843780;29;20058;-73
2023/12/03 08:10:20;;;;;;;92.10;26.08;;;;;;;;;;4836806;29;20106;-73
2023/12/03 08:12:46;;;;;;;100.97;27.58;;;;;;;;;;4832720;29;20140;-73
2023/12/03 08:15:12;;;;;;;102.57;27.05;;;;;;;;;;4829330;29;20571;-73
2023/12/03 08:20:10;;;;;;;102.32;28.67;;;;;;;;;;4816005;29;20051;-73
2023/12/03 08:31:11;;;;;;;84.13;28.33;;;;;;;;;;4944059;24;20055;-72
2023/12/03 08:33:37;;;;;;;80.43;26.63;;;;;;;;;;4809628;29;20065;-73
2023/12/03 08:36:03;;;;;;;94.55;31.08;;;;;;;;;;4816130;29;20051;-73
2023/12/03 08:38:29;;;;;;;94.53;29.70;;;;;;;;;;4822150;29;20046;-73
2023/12/03 08:40:55;;;;;;;84.70;28.67;;;;;;;;;;4833208;29;20424;-72
2023/12/03 08:43:21;;;;;;;80.55;30.02;;;;;;;;;;4828498;29;20046;-73
2023/12/03 08:45:47;;;;;;;78.97;30.20;;;;;;;;;;4828857;29;20468;-73
2023/12/03 08:48:14;;;;;;;74.43;29.25;;;;;;;;;;4828246;29;20045;-73
2023/12/03 08:50:40;;;;;;;77.63;29.27;;;;;;;;;;4831609;29;20421;-73
2023/12/03 08:53:07;;;;;;;69.90;31.13;;;;;;;;;;4831497;29;20061;-73
2023/12/03 08:55:33;;;;;;;74.25;29.75;;;;;;;;;;4832185;29;20046;-73
2023/12/03 08:57:59;;;;;;;76.82;28.92;;;;;;;;;;4811461;29;20783;-73
2023/12/03 09:00:27;;;;;;;66.40;29.65;;;;;;;;;;4826517;29;20077;-73
2023/12/03 09:02:53;;;;;;;68.22;29.30;;;;;;;;;;4829259;29;20092;-73
2023/12/03 09:05:19;;;;;;;64.55;26.27;;;;;;;;;;4828868;29;20133;-73
2023/12/03 09:07:45;;;;;;;69.13;28.15;;;;;;;;;;4822016;29;20042;-73
2023/12/03 09:10:11;;;;;;;67.40;29.33;;;;;;;;;;4852708;29;20056;-75
2023/12/03 09:12:37;;;;;;;61.83;27.90;;;;;;;;;;4829789;29;20120;-74
2023/12/03 09:15:03;;;;;;;65.43;27.23;;;;;;;;;;4841265;29;20054;-74
2023/12/03 09:17:29;;;;;;;65.38;25.77;;;;;;;;;;4846382;29;20041;-74
2023/12/03 09:19:55;;;;;;;61.65;27.13;;;;;;;;;;4823746;29;20154;-74
2023/12/03 09:22:21;;;;;;;64.97;28.27;;;;;;;;;;4829848;29;20045;-74
2023/12/03 09:24:47;;;;;;;59.92;26.55;;;;;;;;;;4832736;29;20102;-74
2023/12/03 09:27:13;;;;;;;57.60;24.13;;;;;;;;;;4832226;29;20472;-74
2023/12/03 09:29:39;;;;;;;59.03;26.25;;;;;;;;;;4832549;29;20072;-74
2023/12/03 09:32:05;;;;;;;54.28;24.77;;;;;;;;;;4833306;29;20061;-74
2023/12/03 09:34:31;;;;;;;58.40;24.38;;;;;;;;;;4831507;29;20052;-74
2023/12/03 09:36:57;;;;;;;61.33;26.27;;;;;;;;;;4832439;29;20041;-74
2023/12/03 09:39:24;;;;;;;55.70;27.35;;;;;;;;;;4830532;29;20477;-74
2023/12/03 09:41:50;;;;;;;55.80;26.33;;;;;;;;;;4846345;29;20117;-74
2023/12/03 09:44:37;;;;;;;53.35;23.90;;;;;;;;;;4824690;29;20095;-74
2023/12/03 09:47:03;;;;;;;53.28;23.63;;;;;;;;;;4818362;29;20053;-75
2023/12/03 09:49:30;;;;;;;57.67;24.08;;;;;;;;;;4830452;29;20158;-74
2023/12/03 09:51:59;;;;;;;58.63;25.17;;;;;;;;;;4831882;29;20130;-74
2023/12/03 09:54:25;;;;;;;50.65;24.42;;;;;;;;;;4832255;29;20126;-76
2023/12/03 09:56:53;;;;;;;51.22;26.02;;;;;;;;;;4831747;29;20045;-75
2023/12/03 09:59:19;;;;;;;56.33;25.85;;;;;;;;;;4828526;29;20056;-75
2023/12/03 10:01:45;;;;;;;50.72;25.42;;;;;;;;;;4829652;29;20057;-71
2023/12/03 10:04:11;;;;;;;47.90;24.88;;;;;;;;;;4831505;29;20402;-72
2023/12/03 10:06:43;;;;;;;54.83;24.58;;;;;;;;;;4828380;29;20122;-72
2023/12/03 10:09:09;;;;;;;46.72;23.00;;;;;;;;;;4830963;29;20054;-72
2023/12/03 10:11:42;;;;;;;45.88;22.75;;;;;;;;;;4830617;29;20053;-72
2023/12/03 10:14:13;;;;;;;50.78;26.45;;;;;;;;;;4833230;29;20046;-72
2023/12/03 10:16:39;;;;;;;49.55;25.50;;;;;;;;;;4828768;29;20513;-73
2023/12/03 10:19:05;;;;;;;51.53;25.27;;;;;;;;;;4831055;29;20375;-72
2023/12/03 10:21:31;;;;;;;46.50;24.30;;;;;;;;;;4828352;29;20156;-72
2023/12/03 10:24:03;;;;;;;50.65;25.35;;;;;;;;;;4830833;29;20045;-72
2023/12/03 10:26:29;;;;;;;47.35;23.75;;;;;;;;;;4822297;29;20089;-74
2023/12/03 10:28:55;;;;;;;49.55;25.00;;;;;;;;;;4832085;29;20050;-75
2023/12/03 10:31:21;;;;;;;51.85;25.30;;;;;;;;;;4842744;29;20068;-74
2023/12/03 10:33:49;;;;;;;48.50;24.70;;;;;;;;;;4845030;29;20642;-75
2023/12/03 10:36:15;;;;;;;45.65;23.38;;;;;;;;;;4833179;29;20069;-76
2023/12/03 10:38:42;;;;;;;52.13;26.05;;;;;;;;;;4832190;29;20057;-74
2023/12/03 10:41:15;;;;;;;51.03;25.52;;;;;;;;;;4831677;29;20049;-75
2023/12/03 10:43:42;;;;;;;45.28;23.38;;;;;;;;;;4830937;29;20062;-74
2023/12/03 10:46:12;;;;;;;46.97;22.02;;;;;;;;;;4831592;29;20054;-75
2023/12/03 10:48:38;;;;;;;48.17;22.98;;;;;;;;;;4828370;29;20046;-73
2023/12/03 10:51:08;;;;;;;40.22;19.75;;;;;;;;;;4829183;29;20060;-73
2023/12/03 10:53:35;;;;;;;42.63;21.63;;;;;;;;;;4827138;29;20046;-73
2023/12/03 10:56:06;;;;;;;46.13;21.17;;;;;;;;;;4831724;29;20053;-73
2023/12/03 10:58:34;;;;;;;43.75;22.45;;;;;;;;;;4827333;29;20049;-73
2023/12/03 11:01:02;;;;;;;46.65;23.10;;;;;;;;;;4827460;29;20053;-73
2023/12/03 11:03:31;;;;;;;47.30;22.75;;;;;;;;;;4841265;29;20060;-73
2023/12/03 11:05:58;;;;;;;40.45;20.15;;;;;;;;;;4825674;29;20461;-73
2023/12/03 11:08:25;;;;;;;50.00;23.50;;;;;;;;;;4840982;29;20561;-73
2023/12/03 11:10:52;;;;;;;44.95;22.67;;;;;;;;;;4836055;29;20074;-73
2023/12/03 11:13:18;;;;;;;43.47;19.85;;;;;;;;;;4841565;29;20176;-73
2023/12/03 11:15:46;;;;;;;42.42;21.45;;;;;;;;;;4829130;29;20177;-73
2023/12/03 11:18:12;;;;;;;43.88;20.25;;;;;;;;;;4826173;29;20054;-73
2023/12/03 11:20:42;;;;;;;43.08;19.75;;;;;;;;;;4831319;29;20149;-73
2023/12/03 11:23:08;;;;;;;45.78;20.90;;;;;;;;;;4823290;29;20046;-73
2023/12/03 11:25:35;;;;;;;43.10;20.48;;;;;;;;;;4829756;29;20445;-73
2023/12/03 11:28:01;;;;;;;47.13;21.05;;;;;;;;;;4836634;29;20044;-73
2023/12/03 11:30:37;;;;;;;48.42;20.85;;;;;;;;;;4846205;29;20064;-73
2023/12/03 11:33:13;;;;;;;57.00;24.08;;;;;;;;;;4836414;29;20130;-73
2023/12/03 11:35:40;;;;;;;50.55;22.40;;;;;;;;;;4845027;29;20049;-73
2023/12/03 11:38:26;;;;;;;49.42;22.58;;;;;;;;;;4829943;29;20050;-73
2023/12/03 11:40:52;;;;;;;50.22;22.52;;;;;;;;;;4833945;29;20053;-73
2023/12/03 11:43:28;;;;;;;52.72;23.23;;;;;;;;;;4824796;29;20057;-73
2023/12/03 11:45:55;;;;;;;53.35;22.30;;;;;;;;;;4835411;29;20061;-73
2023/12/03 11:48:21;;;;;;;52.58;22.95;;;;;;;;;;4845516;29;20057;-73
2023/12/03 11:50:48;;;;;;;48.03;21.95;;;;;;;;;;4830104;29;20049;-73
2023/12/03 11:53:19;;;;;;;57.80;24.08;;;;;;;;;;4846454;29;20165;-73
2023/12/03 11:55:47;;;;;;;40.58;18.40;;;;;;;;;;4830106;29;20058;-73
2023/12/03 11:58:13;;;;;;;57.72;23.90;;;;;;;;;;4831544;29;20102;-73
2023/12/03 12:00:45;;;;;;;54.17;24.73;;;;;;;;;;4828988;29;20058;-72
2023/12/03 12:03:12;;;;;;;55.10;25.60;;;;;;;;;;4836811;29;20050;-73
2023/12/03 12:05:49;;;;;;;58.47;23.80;;;;;;;;;;4830171;29;20129;-73
2023/12/03 12:08:20;;;;;;;56.25;23.65;;;;;;;;;;4830917;29;20560;-74
2023/12/03 12:10:46;;;;;;;58.85;25.83;;;;;;;;;;4824584;29;20062;-72
2023/12/03 12:13:13;;;;;;;52.65;22.65;;;;;;;;;;4826742;29;20050;-73
2023/12/03 12:15:39;;;;;;;58.40;27.10;;;;;;;;;;4832981;29;20056;-73
2023/12/03 12:18:06;;;;;;;55.75;25.88;;;;;;;;;;4828116;29;20126;-73
2023/12/03 12:20:32;;;;;;;54.70;25.33;;;;;;;;;;4829911;29;20801;-73
2023/12/03 12:22:58;;;;;;;47.25;21.45;;;;;;;;;;4828279;29;20042;-73
2023/12/03 12:25:25;;;;;;;56.60;24.00;;;;;;;;;;4831229;29;20869;-73
2023/12/03 12:27:52;;;;;;;57.92;26.63;;;;;;;;;;4833069;29;20046;-75
2023/12/03 12:30:19;;;;;;;44.38;22.67;;;;;;;;;;4850006;29;20723;-73
2023/12/03 12:32:51;;;;;;;45.47;18.85;;;;;;;;;;4828241;29;20065;-73
2023/12/03 12:35:18;;;;;;;42.40;21.77;;;;;;;;;;4846705;29;20088;-73
2023/12/03 12:37:44;;;;;;;40.90;20.42;;;;;;;;;;4836160;29;20140;-73
2023/12/03 12:40:10;;;;;;;43.90;20.73;;;;;;;;;;4847477;29;20078;-73
2023/12/03 12:42:40;;;;;;;41.67;20.42;;;;;;;;;;4833371;29;20458;-73
2023/12/03 12:45:07;;;;;;;39.25;20.40;;;;;;;;;;4833758;29;20053;-73
2023/12/03 12:47:35;;;;;;;39.00;18.60;;;;;;;;;;4831563;29;20057;-73
2023/12/03 12:50:01;;;;;;;31.83;16.38;;;;;;;;;;4831991;29;20049;-73
2023/12/03 12:52:27;;;;;;;29.30;15.25;;;;;;;;;;4831046;29;20060;-72
2023/12/03 12:54:57;;;;;;;28.48;14.50;;;;;;;;;;4844057;29;20046;-73
2023/12/03 12:57:23;;;;;;;37.63;16.77;;;;;;;;;;4843140;29;20488;-72
2023/12/03 13:03:14;;;;;;;28.15;13.73;;;;;;;;;;4830747;29;20098;-72
2023/12/03 13:05:41;;;;;;;26.92;13.48;;;;;;;;;;4834889;29;20165;-73
2023/12/03 13:08:07;;;;;;;29.83;16.00;;;;;;;;;;4829403;29;20046;-72
2023/12/03 13:10:34;;;;;;;27.17;13.82;;;;;;;;;;4832601;29;20491;-72
2023/12/03 13:13:00;;;;;;;30.83;14.40;;;;;;;;;;4830199;29;20834;-72
2023/12/03 13:15:26;;;;;;;28.83;13.23;;;;;;;;;;4831705;29;20102;-72
2023/12/03 13:17:59;;;;;;;29.48;14.38;;;;;;;;;;4831953;29;20046;-72
2023/12/03 13:20:25;;;;;;;30.52;12.68;;;;;;;;;;4847057;29;20076;-72
2023/12/03 13:22:51;;;;;;;24.85;12.75;;;;;;;;;;4846886;29;20106;-72
2023/12/03 13:25:20;;;;;;;31.05;13.50;;;;;;;;;;4831598;29;20081;-72
2023/12/03 13:27:46;;;;;;;31.65;15.57;;;;;;;;;;4848886;29;20475;-72
2023/12/03 13:30:12;;;;;;;29.55;13.05;;;;;;;;;;4845982;29;20061;-73
2023/12/03 13:32:41;;;;;;;25.77;13.07;;;;;;;;;;4827805;29;20045;-72
2023/12/03 13:35:12;;;;;;;31.25;14.43;;;;;;;;;;4833337;29;20126;-72
2023/12/03 13:37:38;;;;;;;28.98;14.35;;;;;;;;;;4831598;29;20130;-72
2023/12/03 13:40:06;;;;;;;27.35;13.63;;;;;;;;;;4825359;29;20077;-73
2023/12/03 13:42:32;;;;;;;26.52;11.15;;;;;;;;;;4831587;29;20054;-72
2023/12/03 13:45:00;;;;;;;30.42;13.48;;;;;;;;;;4828639;29;20659;-72
2023/12/03 13:47:26;;;;;;;24.55;11.63;;;;;;;;;;4832934;29;20425;-72
2023/12/03 13:49:52;;;;;;;24.58;12.60;;;;;;;;;;4830250;29;20046;-72
2023/12/03 13:52:20;;;;;;;27.73;13.10;;;;;;;;;;4829316;29;20045;-72
2023/12/03 13:54:47;;;;;;;30.65;14.50;;;;;;;;;;4826315;29;20060;-73
2023/12/03 13:57:14;;;;;;;29.00;12.73;;;;;;;;;;4845172;29;20057;-72
2023/12/03 13:59:41;;;;;;;29.92;12.50;;;;;;;;;;4824223;29;20054;-72
2023/12/03 14:02:09;;;;;;;31.20;11.85;;;;;;;;;;4844419;29;20054;-73
2023/12/03 14:04:36;;;;;;;25.50;12.77;;;;;;;;;;4847312;29;20085;-72
2023/12/03 14:07:02;;;;;;;30.55;13.82;;;;;;;;;;4830987;29;20053;-72
2023/12/03 14:09:28;;;;;;;27.90;13.57;;;;;;;;;;4830670;29;20075;-72
2023/12/03 14:15:16;;;;;;;30.35;13.18;;;;;;;;;;4827354;29;20102;-72
2023/12/03 14:17:42;;;;;;;32.35;14.98;;;;;;;;;;4831421;29;20058;-72
2023/12/03 14:20:24;;;;;;;30.90;14.55;;;;;;;;;;4847594;29;20052;-72
2023/12/03 14:22:50;;;;;;;29.23;13.38;;;;;;;;;;4837663;29;20061;-72
2023/12/03 14:25:16;;;;;;;26.80;12.75;;;;;;;;;;4829507;29;20049;-72
2023/12/03 14:30:18;;;;;;;29.20;12.27;;;;;;;;;;5363599;24;20140;-72
2023/12/03 14:33:15;;;;;;;31.17;13.82;;;2.50;99.90;;;;;;4835661;29;20092;-73
2023/12/03 14:35:41;;;;;;;26.58;13.23;;;;;;;;;;4835340;29;20074;-72
2023/12/03 14:38:07;;;;;;;29.15;13.73;;;;;;;;;;4832033;29;20046;-72
2023/12/03 14:40:33;;;;;;;30.58;13.85;;;;;;;;;;4825045;29;20042;-72
2023/12/03 14:42:59;;;;;;;30.60;13.55;;;;;;;;;;4834316;29;20532;-72
2023/12/03 14:45:25;;;;;;;30.48;13.85;;;;;;;;;;4843413;29;20150;-72
2023/12/03 14:51:04;;;;;;;36.15;13.88;;;;;;;;;;4818798;29;20057;-72
2023/12/03 14:53:30;;;;;;;32.25;14.60;;;;;;;;;;4821192;29;20049;-72
2023/12/03 14:59:12;;;;;;;28.97;13.30;;;;;;;;;;4822175;29;20444;-72
2023/12/03 15:01:38;;;;;;;29.70;13.00;;;;;;;;;;4820990;29;20060;-73
2023/12/03 15:04:17;;;;;;;27.52;13.30;;;;;;;;;;4840518;29;20045;-72
2023/12/03 15:06:43;;;;;;;28.30;13.82;;;;;;;;;;4819989;29;20128;-72
2023/12/03 15:09:09;;;;;;;30.30;13.65;;;;;;;;;;4844412;29;20098;-72
2023/12/03 15:11:35;;;;;;;31.10;14.27;;;;;;;;;;4821961;29;20218;-72
2023/12/03 15:19:52;;;;;;;29.92;13.10;;;;;;;;;;5738981;24;20050;-72
2023/12/03 15:22:18;;;;;;;31.83;12.70;;;;;;;;;;4832594;29;20112;-72
2023/12/03 15:24:44;;;;;;;27.00;12.68;;;;;;;;;;4816304;29;20065;-72
2023/12/03 15:27:10;;;;;;;31.15;13.52;;;;;;;;;;4816105;29;20050;-72
2023/12/03 15:35:34;;;;;;;25.50;11.43;;;;;;;;;;5354786;23;20072;-76
2023/12/03 15:38:00;;;;;;;27.27;13.35;;;;;;;;;;4828719;29;20153;-76
2023/12/03 15:40:26;;;;;;;29.85;12.63;;;;;;;;;;4834328;29;20132;-76
2023/12/03 15:42:55;;;;;;;28.00;12.63;;;;;;;;;;4834600;29;20128;-77
2023/12/03 15:45:21;;;;;;;26.88;12.45;;;;;;;;;;4817047;29;20476;-76
2023/12/03 15:47:49;;;;;;;23.63;11.27;;;;;;;;;;4835180;29;20053;-76
2023/12/03 15:50:15;;;;;;;26.92;11.88;;;;;;;;;;4834617;29;20500;-75
2023/12/03 15:52:41;;;;;;;23.20;11.25;;;;;;;;;;4835056;29;20462;-76
2023/12/03 15:55:07;;;;;;;30.25;13.60;;;;;;;;;;4832406;29;20552;-76
2023/12/03 15:57:36;;;;;;;28.55;12.35;;;;;;;;;;4829228;29;20093;-76
2023/12/03 16:00:03;;;;;;;23.38;11.65;;;;;;;;;;4831303;29;20057;-75
2023/12/03 16:02:29;;;;;;;25.20;12.20;;;;;;;;;;4834476;29;20060;-76
2023/12/03 16:04:55;;;;;;;25.13;11.25;;;;;;;;;;4835580;29;20053;-74
2023/12/03 16:07:23;;;;;;;27.98;12.85;;;;;;;;;;4838369;29;20075;-77
2023/12/03 16:09:49;;;;;;;27.75;11.40;;;;;;;;;;4855151;29;20056;-77
2023/12/03 16:12:15;;;;;;;27.98;11.25;;;;;;;;;;4838233;29;20107;-77
2023/12/03 16:14:41;;;;;;;24.63;12.07;;;;;;;;;;4837995;29;20058;-76
2023/12/03 16:17:07;;;;;;;20.58;10.55;;;;;;;;;;4838094;29;20064;-76
2023/12/03 16:19:33;;;;;;;23.55;8.88;;;;;;;;;;4837790;29;20053;-76
2023/12/03 16:21:59;;;;;;;26.63;13.32;;;;;;;;;;4837967;29;20049;-76
2023/12/03 16:24:25;;;;;;;26.38;12.57;;;;;;;;;;4838302;29;20164;-76
2023/12/03 16:26:51;;;;;;;26.65;13.60;;;;;;;;;;4837492;29;20778;-77
2023/12/03 16:29:17;;;;;;;25.58;12.80;;;;;;;;;;4837843;29;20053;-77
2023/12/03 16:35:06;;;;;;;22.92;12.02;;;;;;;;;;4853421;29;20564;-76
2023/12/03 16:40:25;;;;;;;26.20;12.05;;;;;;;;;;5205225;23;20495;-73
2023/12/03 16:42:52;;;;;;;23.42;11.43;;;;;;;;;;4835890;29;20057;-76
2023/12/03 16:45:18;;;;;;;29.90;13.48;;;;;;;;;;4836541;29;20060;-77
2023/12/03 16:47:44;;;;;;;26.98;11.82;;;;;;;;;;4837437;29;20056;-76
2023/12/03 16:50:10;;;;;;;28.33;12.95;;;;;;;;;;4835887;29;20389;-76